Carbon, West Virginia
Current Conditions -  °F | °C
As of 7:54 AM on Monday 22 Dec 2014 (Local Time) from KCRW Reporting Station
Overcast Overcast  
Wind Chill: 30°   Ceiling: 4800
Heat Index: 34°   Visibility: 10mi
Dew Point: 30°   Wind: 5mph
Humidity: 85%   Direction: 50°NE
Pressure: 30.07"   Gusts: NA
Location:  38.0912°N, 81.4436°W
Report Text: KCRW 221254Z 05004KT 10SM OVC048 01/M01 A3007 RMK AO2 SLP189 OVC V BKN T00111011
Loading
Personal Weather Stations






























Interactive Weather Map New forecast layout! Learn more

10-Day Weather Forecast

Advertisements
Track Severe Weather on mobile